Terminal Aerodrome Forecast
Issued by NWS El Paso, TX

Home | Current Version | Previous Version | Text Only | Print | Product List | Glossary On
Versions: 1 2 3 4 5 6 7 8 9 10 11 12 13 14 15 16 17 18 19 20
000
FTUS44 KEPZ 211100
TAFELP
TAF
KELP 211120Z 2112/2212 06009KT P6SM SCT050 BKN120
     FM211900 11008KT P6SM VCTS SCT040CB BKN100
     FM220400 06008KT P6SM SCT050 BKN100=

USA.gov is the U.S. government's official web portal to all federal, state and local government web resources and services.